sensor_id;sensor_type;location;lat;lon;timestamp;P1;durP1;ratioP1;P2;durP2;ratioP2
61505;SDS011;47366;51.916;4.574;2023-05-09T04:23:29;7.43;;;4.03;;
61505;SDS011;47366;51.916;4.574;2023-05-09T04:25:54;6.45;;;3.40;;
61505;SDS011;47366;51.916;4.574;2023-05-09T04:28:20;11.95;;;4.53;;
61505;SDS011;47366;51.916;4.574;2023-05-09T04:30:46;7.85;;;3.95;;
61505;SDS011;47366;51.916;4.574;2023-05-09T04:33:11;8.93;;;4.22;;
61505;SDS011;47366;51.916;4.574;2023-05-09T04:35:37;6.97;;;4.03;;
61505;SDS011;47366;51.916;4.574;2023-05-09T04:38:02;11.45;;;4.28;;
61505;SDS011;47366;51.916;4.574;2023-05-09T04:40:28;8.45;;;3.90;;
61505;SDS011;47366;51.916;4.574;2023-05-09T04:42:54;10.85;;;4.05;;
61505;SDS011;47366;51.916;4.574;2023-05-09T04:45:21;7.20;;;4.13;;
61505;SDS011;47366;51.916;4.574;2023-05-09T04:47:46;10.18;;;4.10;;
61505;SDS011;47366;51.916;4.574;2023-05-09T04:50:12;7.18;;;3.40;;
61505;SDS011;47366;51.916;4.574;2023-05-09T04:52:37;10.48;;;4.07;;
61505;SDS011;47366;51.916;4.574;2023-05-09T04:55:02;8.32;;;3.63;;
61505;SDS011;47366;51.916;4.574;2023-05-09T04:57:28;8.63;;;3.75;;
61505;SDS011;47366;51.916;4.574;2023-05-09T04:59:53;9.75;;;3.88;;
61505;SDS011;47366;51.916;4.574;2023-05-09T05:02:19;5.75;;;3.30;;
61505;SDS011;47366;51.916;4.574;2023-05-09T05:04:45;7.55;;;3.85;;
61505;SDS011;47366;51.916;4.574;2023-05-09T05:07:10;6.88;;;3.65;;
61505;SDS011;47366;51.916;4.574;2023-05-09T05:09:35;8.18;;;3.63;;
61505;SDS011;47366;51.916;4.574;2023-05-09T05:12:01;5.97;;;3.50;;
61505;SDS011;47366;51.916;4.574;2023-05-09T05:14:26;9.73;;;4.00;;
61505;SDS011;47366;51.916;4.574;2023-05-09T05:16:51;7.43;;;3.70;;
61505;SDS011;47366;51.916;4.574;2023-05-09T05:19:17;8.65;;;3.38;;
61505;SDS011;47366;51.916;4.574;2023-05-09T05:21:42;9.48;;;3.80;;
61505;SDS011;47366;51.916;4.574;2023-05-09T05:24:07;6.57;;;3.60;;
61505;SDS011;47366;51.916;4.574;2023-05-09T05:26:33;5.40;;;3.25;;
61505;SDS011;47366;51.916;4.574;2023-05-09T05:28:58;5.20;;;3.25;;
61505;SDS011;47366;51.916;4.574;2023-05-09T05:31:24;5.93;;;3.42;;
61505;SDS011;47366;51.916;4.574;2023-05-09T05:33:50;5.47;;;3.08;;
61505;SDS011;47366;51.916;4.574;2023-05-09T05:36:15;7.13;;;2.88;;
61505;SDS011;47366;51.916;4.574;2023-05-09T05:38:41;6.13;;;3.35;;
61505;SDS011;47366;51.916;4.574;2023-05-09T05:41:06;8.55;;;3.28;;
61505;SDS011;47366;51.916;4.574;2023-05-09T05:43:35;5.68;;;3.20;;
61505;SDS011;47366;51.916;4.574;2023-05-09T05:46:00;5.00;;;3.22;;
61505;SDS011;47366;51.916;4.574;2023-05-09T05:48:26;6.55;;;3.30;;
61505;SDS011;47366;51.916;4.574;2023-05-09T05:50:51;9.30;;;3.35;;
61505;SDS011;47366;51.916;4.574;2023-05-09T05:53:16;7.63;;;2.97;;
61505;SDS011;47366;51.916;4.574;2023-05-09T05:55:42;9.05;;;3.58;;
61505;SDS011;47366;51.916;4.574;2023-05-09T05:58:09;4.47;;;2.65;;
61505;SDS011;47366;51.916;4.574;2023-05-09T06:00:35;4.88;;;2.63;;
61505;SDS011;47366;51.916;4.574;2023-05-09T06:03:00;4.90;;;2.67;;
61505;SDS011;47366;51.916;4.574;2023-05-09T06:05:25;6.45;;;3.38;;
61505;SDS011;47366;51.916;4.574;2023-05-09T06:07:51;6.05;;;3.38;;
61505;SDS011;47366;51.916;4.574;2023-05-09T06:10:16;5.55;;;2.78;;
61505;SDS011;47366;51.916;4.574;2023-05-09T06:12:41;5.18;;;3.10;;
61505;SDS011;47366;51.916;4.574;2023-05-09T06:15:07;6.03;;;2.90;;
61505;SDS011;47366;51.916;4.574;2023-05-09T06:17:33;5.57;;;2.75;;
61505;SDS011;47366;51.916;4.574;2023-05-09T06:19:58;6.13;;;2.70;;
61505;SDS011;47366;51.916;4.574;2023-05-09T06:22:24;5.20;;;2.50;;
61505;SDS011;47366;51.916;4.574;2023-05-09T06:24:49;5.28;;;2.63;;
61505;SDS011;47366;51.916;4.574;2023-05-09T06:27:14;5.25;;;3.10;;
61505;SDS011;47366;51.916;4.574;2023-05-09T06:29:40;5.07;;;3.42;;
61505;SDS011;47366;51.916;4.574;2023-05-09T06:32:05;6.93;;;3.03;;
61505;SDS011;47366;51.916;4.574;2023-05-09T06:34:30;6.85;;;3.22;;
61505;SDS011;47366;51.916;4.574;2023-05-09T06:36:56;6.28;;;2.67;;
61505;SDS011;47366;51.916;4.574;2023-05-09T06:39:21;5.18;;;2.50;;
61505;SDS011;47366;51.916;4.574;2023-05-09T06:41:46;5.30;;;2.97;;
61505;SDS011;47366;51.916;4.574;2023-05-09T06:44:12;5.18;;;2.80;;
61505;SDS011;47366;51.916;4.574;2023-05-09T06:46:37;5.05;;;3.05;;
61505;SDS011;47366;51.916;4.574;2023-05-09T06:49:02;8.07;;;4.10;;
61505;SDS011;47366;51.916;4.574;2023-05-09T06:51:30;5.25;;;3.13;;
61505;SDS011;47366;51.916;4.574;2023-05-09T06:53:56;6.60;;;3.28;;
61505;SDS011;47366;51.916;4.574;2023-05-09T06:56:21;7.47;;;2.92;;
61505;SDS011;47366;51.916;4.574;2023-05-09T06:58:49;5.18;;;3.05;;
61505;SDS011;47366;51.916;4.574;2023-05-09T07:01:15;4.32;;;2.88;;
61505;SDS011;47366;51.916;4.574;2023-05-09T07:03:41;6.65;;;3.03;;
61505;SDS011;47366;51.916;4.574;2023-05-09T07:06:06;7.00;;;3.63;;
61505;SDS011;47366;51.916;4.574;2023-05-09T07:08:32;5.10;;;3.33;;
61505;SDS011;47366;51.916;4.574;2023-05-09T07:10:57;5.80;;;2.92;;
61505;SDS011;47366;51.916;4.574;2023-05-09T07:13:22;6.43;;;3.40;;
61505;SDS011;47366;51.916;4.574;2023-05-09T07:15:48;5.43;;;2.83;;
61505;SDS011;47366;51.916;4.574;2023-05-09T07:18:13;6.72;;;2.92;;
61505;SDS011;47366;51.916;4.574;2023-05-09T07:20:38;5.78;;;2.88;;
61505;SDS011;47366;51.916;4.574;2023-05-09T07:23:04;6.10;;;3.20;;
61505;SDS011;47366;51.916;4.574;2023-05-09T07:25:30;5.43;;;2.80;;
61505;SDS011;47366;51.916;4.574;2023-05-09T07:27:55;5.45;;;2.97;;
61505;SDS011;47366;51.916;4.574;2023-05-09T07:30:21;7.82;;;3.17;;
61505;SDS011;47366;51.916;4.574;2023-05-09T07:32:46;4.95;;;2.92;;
61505;SDS011;47366;51.916;4.574;2023-05-09T07:35:11;4.65;;;3.22;;
61505;SDS011;47366;51.916;4.574;2023-05-09T07:37:36;5.35;;;3.38;;
61505;SDS011;47366;51.916;4.574;2023-05-09T07:40:02;5.63;;;3.30;;
61505;SDS011;47366;51.916;4.574;2023-05-09T07:42:30;8.05;;;3.72;;
61505;SDS011;47366;51.916;4.574;2023-05-09T07:44:56;9.65;;;3.28;;
61505;SDS011;47366;51.916;4.574;2023-05-09T07:47:23;6.85;;;3.67;;
61505;SDS011;47366;51.916;4.574;2023-05-09T07:49:48;6.55;;;3.53;;
61505;SDS011;47366;51.916;4.574;2023-05-09T07:52:14;7.18;;;3.63;;
61505;SDS011;47366;51.916;4.574;2023-05-09T07:54:41;6.43;;;3.50;;
61505;SDS011;47366;51.916;4.574;2023-05-09T07:57:06;7.45;;;3.35;;
61505;SDS011;47366;51.916;4.574;2023-05-09T07:59:31;6.03;;;3.15;;
61505;SDS011;47366;51.916;4.574;2023-05-09T08:01:57;5.85;;;3.40;;
61505;SDS011;47366;51.916;4.574;2023-05-09T08:04:22;7.18;;;3.72;;
61505;SDS011;47366;51.916;4.574;2023-05-09T08:06:48;4.55;;;2.65;;
61505;SDS011;47366;51.916;4.574;2023-05-09T08:09:13;8.00;;;3.42;;
61505;SDS011;47366;51.916;4.574;2023-05-09T08:11:38;7.68;;;3.40;;
61505;SDS011;47366;51.916;4.574;2023-05-09T08:14:04;5.43;;;3.28;;
61505;SDS011;47366;51.916;4.574;2023-05-09T08:16:29;7.53;;;3.33;;
61505;SDS011;47366;51.916;4.574;2023-05-09T08:18:54;5.30;;;2.75;;
61505;SDS011;47366;51.916;4.574;2023-05-09T08:21:20;6.50;;;3.45;;
61505;SDS011;47366;51.916;4.574;2023-05-09T08:23:46;5.88;;;3.05;;
61505;SDS011;47366;51.916;4.574;2023-05-09T08:26:11;6.57;;;2.85;;
61505;SDS011;47366;51.916;4.574;2023-05-09T08:28:37;4.93;;;3.03;;
61505;SDS011;47366;51.916;4.574;2023-05-09T08:31:02;5.75;;;3.42;;
61505;SDS011;47366;51.916;4.574;2023-05-09T08:33:27;5.68;;;3.30;;
61505;SDS011;47366;51.916;4.574;2023-05-09T08:35:53;6.63;;;3.45;;
61505;SDS011;47366;51.916;4.574;2023-05-09T08:38:18;6.75;;;3.72;;
61505;SDS011;47366;51.916;4.574;2023-05-09T08:40:44;5.53;;;2.83;;
61505;SDS011;47366;51.916;4.574;2023-05-09T08:43:10;5.05;;;2.80;;
61505;SDS011;47366;51.916;4.574;2023-05-09T08:45:46;8.63;;;2.70;;
61505;SDS011;47366;51.916;4.574;2023-05-09T08:48:15;5.13;;;2.25;;
61505;SDS011;47366;51.916;4.574;2023-05-09T08:50:41;5.03;;;2.40;;
61505;SDS011;47366;51.916;4.574;2023-05-09T08:53:07;4.80;;;2.38;;
61505;SDS011;47366;51.916;4.574;2023-05-09T08:55:33;4.65;;;2.58;;
61505;SDS011;47366;51.916;4.574;2023-05-09T08:57:59;5.28;;;3.08;;
61505;SDS011;47366;51.916;4.574;2023-05-09T09:00:25;6.65;;;2.60;;
61505;SDS011;47366;51.916;4.574;2023-05-09T09:02:50;4.60;;;2.55;;
61505;SDS011;47366;51.916;4.574;2023-05-09T09:05:17;5.55;;;2.40;;
61505;SDS011;47366;51.916;4.574;2023-05-09T09:07:42;6.15;;;3.08;;
61505;SDS011;47366;51.916;4.574;2023-05-09T09:10:09;5.20;;;3.00;;
61505;SDS011;47366;51.916;4.574;2023-05-09T09:12:35;5.45;;;2.22;;
61505;SDS011;47366;51.916;4.574;2023-05-09T09:15:02;6.50;;;2.95;;
61505;SDS011;47366;51.916;4.574;2023-05-09T09:17:30;6.25;;;3.20;;
61505;SDS011;47366;51.916;4.574;2023-05-09T09:19:57;3.78;;;2.65;;
61505;SDS011;47366;51.916;4.574;2023-05-09T09:22:26;4.97;;;2.75;;
61505;SDS011;47366;51.916;4.574;2023-05-09T09:25:00;3.63;;;2.30;;
61505;SDS011;47366;51.916;4.574;2023-05-09T09:27:26;5.95;;;3.20;;
61505;SDS011;47366;51.916;4.574;2023-05-09T09:29:52;5.03;;;2.72;;
61505;SDS011;47366;51.916;4.574;2023-05-09T09:32:18;4.30;;;3.00;;
61505;SDS011;47366;51.916;4.574;2023-05-09T09:34:45;7.35;;;2.97;;
61505;SDS011;47366;51.916;4.574;2023-05-09T09:37:20;5.30;;;2.55;;
61505;SDS011;47366;51.916;4.574;2023-05-09T09:39:53;3.78;;;2.50;;
61505;SDS011;47366;51.916;4.574;2023-05-09T09:42:19;10.07;;;3.28;;
61505;SDS011;47366;51.916;4.574;2023-05-09T09:44:45;4.05;;;2.53;;
61505;SDS011;47366;51.916;4.574;2023-05-09T09:47:20;4.10;;;2.80;;
61505;SDS011;47366;51.916;4.574;2023-05-09T09:49:55;4.20;;;2.58;;
61505;SDS011;47366;51.916;4.574;2023-05-09T09:52:21;4.80;;;2.38;;
61505;SDS011;47366;51.916;4.574;2023-05-09T09:54:48;4.10;;;2.53;;
61505;SDS011;47366;51.916;4.574;2023-05-09T09:57:26;5.25;;;2.63;;
61505;SDS011;47366;51.916;4.574;2023-05-09T09:59:58;6.25;;;3.25;;
61505;SDS011;47366;51.916;4.574;2023-05-09T10:02:23;7.50;;;3.05;;
61505;SDS011;47366;51.916;4.574;2023-05-09T10:04:49;8.32;;;3.08;;
61505;SDS011;47366;51.916;4.574;2023-05-09T10:07:14;4.90;;;2.90;;
61505;SDS011;47366;51.916;4.574;2023-05-09T10:09:39;4.20;;;3.00;;
61505;SDS011;47366;51.916;4.574;2023-05-09T10:12:06;6.28;;;3.10;;
61505;SDS011;47366;51.916;4.574;2023-05-09T10:14:33;4.53;;;2.72;;
61505;SDS011;47366;51.916;4.574;2023-05-09T10:16:59;10.38;;;3.35;;
61505;SDS011;47366;51.916;4.574;2023-05-09T10:19:26;6.18;;;3.20;;
61505;SDS011;47366;51.916;4.574;2023-05-09T10:21:57;8.90;;;3.00;;
61505;SDS011;47366;51.916;4.574;2023-05-09T10:24:27;5.95;;;2.90;;
61505;SDS011;47366;51.916;4.574;2023-05-09T10:27:14;5.90;;;3.42;;
61505;SDS011;47366;51.916;4.574;2023-05-09T10:29:48;4.45;;;2.67;;
61505;SDS011;47366;51.916;4.574;2023-05-09T10:32:59;4.72;;;2.75;;
61505;SDS011;47366;51.916;4.574;2023-05-09T10:35:16;4.38;;;2.90;;
61505;SDS011;47366;51.916;4.574;2023-05-09T10:37:44;4.13;;;2.60;;
61505;SDS011;47366;51.916;4.574;2023-05-09T10:40:10;5.32;;;2.78;;
61505;SDS011;47366;51.916;4.574;2023-05-09T10:42:42;4.15;;;2.45;;
61505;SDS011;47366;51.916;4.574;2023-05-09T10:45:12;5.25;;;2.80;;
61505;SDS011;47366;51.916;4.574;2023-05-09T10:47:38;3.60;;;2.08;;
61505;SDS011;47366;51.916;4.574;2023-05-09T10:50:05;3.30;;;2.17;;
61505;SDS011;47366;51.916;4.574;2023-05-09T10:52:33;3.95;;;2.28;;
61505;SDS011;47366;51.916;4.574;2023-05-09T10:54:58;3.97;;;2.78;;
61505;SDS011;47366;51.916;4.574;2023-05-09T10:57:26;4.63;;;2.92;;
61505;SDS011;47366;51.916;4.574;2023-05-09T10:59:53;4.32;;;2.67;;
61505;SDS011;47366;51.916;4.574;2023-05-09T11:02:20;4.85;;;2.97;;
61505;SDS011;47366;51.916;4.574;2023-05-09T11:05:12;3.97;;;2.88;;
61505;SDS011;47366;51.916;4.574;2023-05-09T11:07:37;3.72;;;2.40;;
61505;SDS011;47366;51.916;4.574;2023-05-09T11:12:32;5.85;;;3.38;;
61505;SDS011;47366;51.916;4.574;2023-05-09T11:15:05;7.60;;;2.83;;
61505;SDS011;47366;51.916;4.574;2023-05-09T11:17:32;5.20;;;2.78;;
61505;SDS011;47366;51.916;4.574;2023-05-09T11:20:03;7.22;;;3.00;;
61505;SDS011;47366;51.916;4.574;2023-05-09T11:22:42;4.97;;;3.05;;
61505;SDS011;47366;51.916;4.574;2023-05-09T11:25:09;5.20;;;3.20;;
61505;SDS011;47366;51.916;4.574;2023-05-09T11:30:15;6.00;;;3.70;;
61505;SDS011;47366;51.916;4.574;2023-05-09T11:35:13;4.85;;;2.60;;
61505;SDS011;47366;51.916;4.574;2023-05-09T11:37:44;4.60;;;2.58;;
61505;SDS011;47366;51.916;4.574;2023-05-09T11:40:12;4.65;;;3.20;;
61505;SDS011;47366;51.916;4.574;2023-05-09T11:42:43;4.72;;;2.90;;
61505;SDS011;47366;51.916;4.574;2023-05-09T11:45:10;4.72;;;2.70;;
61505;SDS011;47366;51.916;4.574;2023-05-09T11:47:36;4.60;;;2.85;;
61505;SDS011;47366;51.916;4.574;2023-05-09T11:50:10;3.22;;;2.47;;
61505;SDS011;47366;51.916;4.574;2023-05-09T11:52:37;3.90;;;2.33;;
61505;SDS011;47366;51.916;4.574;2023-05-09T11:55:10;4.68;;;2.53;;
61505;SDS011;47366;51.916;4.574;2023-05-09T11:57:38;4.30;;;2.92;;
61505;SDS011;47366;51.916;4.574;2023-05-09T12:00:05;4.00;;;2.65;;
61505;SDS011;47366;51.916;4.574;2023-05-09T12:02:31;4.10;;;2.47;;
61505;SDS011;47366;51.916;4.574;2023-05-09T12:05:08;2.92;;;2.03;;
61505;SDS011;47366;51.916;4.574;2023-05-09T12:07:38;3.55;;;2.15;;
61505;SDS011;47366;51.916;4.574;2023-05-09T12:10:05;3.45;;;2.17;;
61505;SDS011;47366;51.916;4.574;2023-05-09T12:12:35;2.80;;;1.85;;
61505;SDS011;47366;51.916;4.574;2023-05-09T12:15:06;3.27;;;2.10;;
61505;SDS011;47366;51.916;4.574;2023-05-09T12:17:32;2.83;;;1.70;;
61505;SDS011;47366;51.916;4.574;2023-05-09T12:19:58;3.13;;;1.85;;
61505;SDS011;47366;51.916;4.574;2023-05-09T12:22:25;2.65;;;1.75;;
61505;SDS011;47366;51.916;4.574;2023-05-09T12:24:50;2.65;;;1.70;;
61505;SDS011;47366;51.916;4.574;2023-05-09T12:27:15;4.22;;;2.00;;
61505;SDS011;47366;51.916;4.574;2023-05-09T12:29:42;2.45;;;1.70;;
61505;SDS011;47366;51.916;4.574;2023-05-09T12:32:10;3.35;;;1.70;;
61505;SDS011;47366;51.916;4.574;2023-05-09T12:34:37;2.28;;;1.40;;
61505;SDS011;47366;51.916;4.574;2023-05-09T12:37:03;1.55;;;1.17;;
61505;SDS011;47366;51.916;4.574;2023-05-09T12:39:42;2.10;;;1.33;;
61505;SDS011;47366;51.916;4.574;2023-05-09T12:42:27;2.42;;;1.30;;
61505;SDS011;47366;51.916;4.574;2023-05-09T12:44:53;3.05;;;1.60;;
61505;SDS011;47366;51.916;4.574;2023-05-09T12:47:18;1.95;;;1.45;;
61505;SDS011;47366;51.916;4.574;2023-05-09T12:49:47;2.45;;;1.73;;
61505;SDS011;47366;51.916;4.574;2023-05-09T12:52:17;3.70;;;2.03;;
61505;SDS011;47366;51.916;4.574;2023-05-09T12:54:46;2.60;;;1.80;;
61505;SDS011;47366;51.916;4.574;2023-05-09T12:57:22;5.15;;;1.48;;
61505;SDS011;47366;51.916;4.574;2023-05-09T12:59:48;3.67;;;1.65;;
61505;SDS011;47366;51.916;4.574;2023-05-09T13:02:14;3.40;;;1.90;;
61505;SDS011;47366;51.916;4.574;2023-05-09T13:04:39;2.92;;;1.73;;
61505;SDS011;47366;51.916;4.574;2023-05-09T13:07:07;4.20;;;2.22;;
61505;SDS011;47366;51.916;4.574;2023-05-09T13:09:34;3.05;;;1.80;;
61505;SDS011;47366;51.916;4.574;2023-05-09T13:12:01;3.40;;;2.00;;
61505;SDS011;47366;51.916;4.574;2023-05-09T13:14:28;2.38;;;1.45;;
61505;SDS011;47366;51.916;4.574;2023-05-09T13:16:53;2.42;;;1.63;;
61505;SDS011;47366;51.916;4.574;2023-05-09T13:19:19;2.60;;;1.75;;
61505;SDS011;47366;51.916;4.574;2023-05-09T13:21:44;4.10;;;1.88;;
61505;SDS011;47366;51.916;4.574;2023-05-09T13:24:10;3.05;;;2.05;;
61505;SDS011;47366;51.916;4.574;2023-05-09T13:26:35;2.30;;;1.50;;
61505;SDS011;47366;51.916;4.574;2023-05-09T13:29:00;2.67;;;1.40;;
61505;SDS011;47366;51.916;4.574;2023-05-09T13:31:26;3.28;;;1.42;;
61505;SDS011;47366;51.916;4.574;2023-05-09T13:33:51;2.97;;;1.80;;
61505;SDS011;47366;51.916;4.574;2023-05-09T13:36:16;1.15;;;0.82;;
61505;SDS011;47366;51.916;4.574;2023-05-09T13:38:42;3.05;;;1.35;;
61505;SDS011;47366;51.916;4.574;2023-05-09T13:41:09;3.42;;;1.48;;
61505;SDS011;47366;51.916;4.574;2023-05-09T13:43:35;2.47;;;1.45;;
61505;SDS011;47366;51.916;4.574;2023-05-09T13:46:03;1.45;;;0.98;;
61505;SDS011;47366;51.916;4.574;2023-05-09T13:48:28;2.60;;;1.42;;
61505;SDS011;47366;51.916;4.574;2023-05-09T13:50:53;1.77;;;1.10;;
61505;SDS011;47366;51.916;4.574;2023-05-09T13:53:19;2.20;;;1.38;;
61505;SDS011;47366;51.916;4.574;2023-05-09T13:55:45;1.77;;;1.13;;
61505;SDS011;47366;51.916;4.574;2023-05-09T13:58:11;1.70;;;1.17;;
61505;SDS011;47366;51.916;4.574;2023-05-09T14:00:36;1.73;;;1.08;;
61505;SDS011;47366;51.916;4.574;2023-05-09T14:03:02;2.30;;;1.00;;
61505;SDS011;47366;51.916;4.574;2023-05-09T14:05:29;2.28;;;1.27;;
61505;SDS011;47366;51.916;4.574;2023-05-09T14:07:55;1.85;;;1.10;;
61505;SDS011;47366;51.916;4.574;2023-05-09T14:10:21;2.28;;;1.20;;
61505;SDS011;47366;51.916;4.574;2023-05-09T14:12:48;2.38;;;1.30;;
61505;SDS011;47366;51.916;4.574;2023-05-09T14:15:13;1.65;;;1.13;;
61505;SDS011;47366;51.916;4.574;2023-05-09T14:17:38;1.95;;;1.20;;
61505;SDS011;47366;51.916;4.574;2023-05-09T14:20:04;1.75;;;1.15;;
61505;SDS011;47366;51.916;4.574;2023-05-09T14:22:30;1.85;;;1.05;;
61505;SDS011;47366;51.916;4.574;2023-05-09T14:24:56;1.95;;;1.20;;
61505;SDS011;47366;51.916;4.574;2023-05-09T14:27:21;1.20;;;1.02;;
61505;SDS011;47366;51.916;4.574;2023-05-09T14:29:46;1.02;;;0.70;;
61505;SDS011;47366;51.916;4.574;2023-05-09T14:32:13;2.35;;;1.23;;
61505;SDS011;47366;51.916;4.574;2023-05-09T14:34:39;1.02;;;0.75;;
61505;SDS011;47366;51.916;4.574;2023-05-09T14:37:04;1.17;;;0.90;;
61505;SDS011;47366;51.916;4.574;2023-05-09T14:39:37;3.92;;;1.10;;
61505;SDS011;47366;51.916;4.574;2023-05-09T14:42:06;1.35;;;0.98;;
61505;SDS011;47366;51.916;4.574;2023-05-09T14:44:34;2.45;;;1.02;;
61505;SDS011;47366;51.916;4.574;2023-05-09T14:47:00;3.40;;;1.02;;
61505;SDS011;47366;51.916;4.574;2023-05-09T14:49:26;0.50;;;0.45;;
61505;SDS011;47366;51.916;4.574;2023-05-09T14:51:51;1.17;;;0.90;;
61505;SDS011;47366;51.916;4.574;2023-05-09T14:54:16;2.13;;;1.27;;
61505;SDS011;47366;51.916;4.574;2023-05-09T14:56:42;2.03;;;1.23;;
61505;SDS011;47366;51.916;4.574;2023-05-09T14:59:07;2.00;;;1.30;;
61505;SDS011;47366;51.916;4.574;2023-05-09T15:01:33;1.65;;;1.08;;
61505;SDS011;47366;51.916;4.574;2023-05-09T15:03:58;0.95;;;0.77;;
61505;SDS011;47366;51.916;4.574;2023-05-09T15:06:24;1.10;;;0.82;;
61505;SDS011;47366;51.916;4.574;2023-05-09T15:08:49;1.17;;;0.80;;
61505;SDS011;47366;51.916;4.574;2023-05-09T15:11:14;0.93;;;0.82;;
61505;SDS011;47366;51.916;4.574;2023-05-09T15:13:40;1.77;;;1.02;;
61505;SDS011;47366;51.916;4.574;2023-05-09T15:16:05;1.30;;;0.80;;
61505;SDS011;47366;51.916;4.574;2023-05-09T15:18:30;0.77;;;0.60;;
61505;SDS011;47366;51.916;4.574;2023-05-09T15:20:57;0.90;;;0.68;;
61505;SDS011;47366;51.916;4.574;2023-05-09T15:23:22;1.00;;;0.70;;
61505;SDS011;47366;51.916;4.574;2023-05-09T15:25:48;1.35;;;0.75;;
61505;SDS011;47366;51.916;4.574;2023-05-09T15:28:13;0.63;;;0.45;;
61505;SDS011;47366;51.916;4.574;2023-05-09T15:30:39;0.88;;;0.55;;
61505;SDS011;47366;51.916;4.574;2023-05-09T15:33:05;1.38;;;0.60;;
61505;SDS011;47366;51.916;4.574;2023-05-09T15:35:31;0.73;;;0.45;;
61505;SDS011;47366;51.916;4.574;2023-05-09T15:37:57;1.08;;;0.85;;
61505;SDS011;47366;51.916;4.574;2023-05-09T15:40:23;0.60;;;0.57;;
61505;SDS011;47366;51.916;4.574;2023-05-09T15:42:48;1.00;;;0.75;;
61505;SDS011;47366;51.916;4.574;2023-05-09T15:45:14;1.08;;;0.70;;
61505;SDS011;47366;51.916;4.574;2023-05-09T15:47:40;1.23;;;0.77;;
61505;SDS011;47366;51.916;4.574;2023-05-09T15:50:05;2.15;;;0.80;;
61505;SDS011;47366;51.916;4.574;2023-05-09T15:52:32;1.10;;;0.77;;
61505;SDS011;47366;51.916;4.574;2023-05-09T15:54:57;3.47;;;1.38;;
61505;SDS011;47366;51.916;4.574;2023-05-09T15:57:23;1.92;;;0.95;;
61505;SDS011;47366;51.916;4.574;2023-05-09T15:59:49;2.53;;;1.20;;
61505;SDS011;47366;51.916;4.574;2023-05-09T16:02:14;1.05;;;0.75;;
61505;SDS011;47366;51.916;4.574;2023-05-09T16:04:39;1.35;;;0.88;;
61505;SDS011;47366;51.916;4.574;2023-05-09T16:07:06;1.90;;;0.88;;
61505;SDS011;47366;51.916;4.574;2023-05-09T16:09:32;0.80;;;0.70;;
61505;SDS011;47366;51.916;4.574;2023-05-09T16:11:58;1.30;;;0.95;;
61505;SDS011;47366;51.916;4.574;2023-05-09T16:14:23;1.00;;;0.73;;
61505;SDS011;47366;51.916;4.574;2023-05-09T16:16:49;1.02;;;0.70;;
61505;SDS011;47366;51.916;4.574;2023-05-09T16:19:15;2.13;;;1.17;;
61505;SDS011;47366;51.916;4.574;2023-05-09T16:21:44;1.63;;;1.20;;
61505;SDS011;47366;51.916;4.574;2023-05-09T16:24:10;0.98;;;0.65;;
61505;SDS011;47366;51.916;4.574;2023-05-09T16:26:35;1.30;;;0.90;;
61505;SDS011;47366;51.916;4.574;2023-05-09T16:29:01;1.77;;;0.95;;
61505;SDS011;47366;51.916;4.574;2023-05-09T16:31:26;1.48;;;1.00;;
61505;SDS011;47366;51.916;4.574;2023-05-09T16:33:52;2.72;;;1.17;;
61505;SDS011;47366;51.916;4.574;2023-05-09T16:36:18;2.50;;;1.23;;
61505;SDS011;47366;51.916;4.574;2023-05-09T16:38:43;2.17;;;1.23;;
61505;SDS011;47366;51.916;4.574;2023-05-09T16:41:09;2.63;;;1.63;;
61505;SDS011;47366;51.916;4.574;2023-05-09T16:43:34;3.25;;;1.67;;
61505;SDS011;47366;51.916;4.574;2023-05-09T16:45:59;3.42;;;1.75;;
61505;SDS011;47366;51.916;4.574;2023-05-09T16:48:25;3.45;;;1.70;;
61505;SDS011;47366;51.916;4.574;2023-05-09T16:50:50;3.05;;;1.75;;
61505;SDS011;47366;51.916;4.574;2023-05-09T16:53:17;2.25;;;1.55;;
61505;SDS011;47366;51.916;4.574;2023-05-09T16:55:44;4.63;;;2.22;;
61505;SDS011;47366;51.916;4.574;2023-05-09T16:58:10;3.20;;;2.03;;
61505;SDS011;47366;51.916;4.574;2023-05-09T17:00:35;6.28;;;2.67;;
61505;SDS011;47366;51.916;4.574;2023-05-09T17:03:01;3.40;;;2.17;;
61505;SDS011;47366;51.916;4.574;2023-05-09T17:05:27;4.45;;;2.55;;
61505;SDS011;47366;51.916;4.574;2023-05-09T17:07:52;3.47;;;1.90;;
61505;SDS011;47366;51.916;4.574;2023-05-09T17:10:18;3.72;;;1.63;;
61505;SDS011;47366;51.916;4.574;2023-05-09T17:12:43;2.95;;;1.38;;
61505;SDS011;47366;51.916;4.574;2023-05-09T17:15:09;3.05;;;1.67;;
61505;SDS011;47366;51.916;4.574;2023-05-09T17:17:36;1.65;;;1.17;;
61505;SDS011;47366;51.916;4.574;2023-05-09T17:20:01;2.15;;;1.40;;
61505;SDS011;47366;51.916;4.574;2023-05-09T17:22:28;1.52;;;1.23;;
61505;SDS011;47366;51.916;4.574;2023-05-09T17:24:53;1.67;;;0.93;;
61505;SDS011;47366;51.916;4.574;2023-05-09T17:27:20;1.52;;;1.02;;
61505;SDS011;47366;51.916;4.574;2023-05-09T17:29:45;1.80;;;1.25;;
61505;SDS011;47366;51.916;4.574;2023-05-09T17:32:11;2.05;;;1.05;;
61505;SDS011;47366;51.916;4.574;2023-05-09T17:34:37;1.20;;;0.93;;
61505;SDS011;47366;51.916;4.574;2023-05-09T17:37:03;1.67;;;0.95;;
61505;SDS011;47366;51.916;4.574;2023-05-09T17:39:30;2.03;;;1.13;;
61505;SDS011;47366;51.916;4.574;2023-05-09T17:41:56;2.35;;;1.10;;
61505;SDS011;47366;51.916;4.574;2023-05-09T17:44:21;1.13;;;0.88;;
61505;SDS011;47366;51.916;4.574;2023-05-09T17:46:48;1.98;;;0.82;;
61505;SDS011;47366;51.916;4.574;2023-05-09T17:49:13;1.42;;;0.85;;
61505;SDS011;47366;51.916;4.574;2023-05-09T17:51:39;4.32;;;0.80;;
61505;SDS011;47366;51.916;4.574;2023-05-09T17:54:04;1.38;;;1.00;;
61505;SDS011;47366;51.916;4.574;2023-05-09T17:56:30;1.30;;;0.70;;
61505;SDS011;47366;51.916;4.574;2023-05-09T17:58:55;1.10;;;1.00;;
61505;SDS011;47366;51.916;4.574;2023-05-09T18:01:22;1.67;;;0.93;;
61505;SDS011;47366;51.916;4.574;2023-05-09T18:03:48;1.55;;;0.80;;
61505;SDS011;47366;51.916;4.574;2023-05-09T18:06:13;0.82;;;0.70;;
61505;SDS011;47366;51.916;4.574;2023-05-09T18:08:38;1.63;;;1.00;;
61505;SDS011;47366;51.916;4.574;2023-05-09T18:11:04;1.42;;;0.75;;
61505;SDS011;47366;51.916;4.574;2023-05-09T18:13:29;2.38;;;1.08;;
61505;SDS011;47366;51.916;4.574;2023-05-09T18:15:55;1.13;;;0.80;;
61505;SDS011;47366;51.916;4.574;2023-05-09T18:18:24;1.25;;;0.70;;
61505;SDS011;47366;51.916;4.574;2023-05-09T18:20:56;1.05;;;0.90;;
61505;SDS011;47366;51.916;4.574;2023-05-09T18:23:22;1.48;;;0.93;;
61505;SDS011;47366;51.916;4.574;2023-05-09T18:25:49;2.53;;;1.15;;
61505;SDS011;47366;51.916;4.574;2023-05-09T18:28:15;1.88;;;1.20;;
61505;SDS011;47366;51.916;4.574;2023-05-09T18:30:48;3.15;;;1.75;;
61505;SDS011;47366;51.916;4.574;2023-05-09T18:33:15;3.38;;;1.42;;
61505;SDS011;47366;51.916;4.574;2023-05-09T18:35:40;2.30;;;1.52;;
61505;SDS011;47366;51.916;4.574;2023-05-09T18:38:06;2.22;;;1.40;;
61505;SDS011;47366;51.916;4.574;2023-05-09T18:40:31;2.83;;;1.58;;
61505;SDS011;47366;51.916;4.574;2023-05-09T18:42:56;4.45;;;1.58;;
61505;SDS011;47366;51.916;4.574;2023-05-09T18:45:22;2.50;;;1.35;;
61505;SDS011;47366;51.916;4.574;2023-05-09T18:47:47;2.35;;;1.70;;
61505;SDS011;47366;51.916;4.574;2023-05-09T18:50:12;2.13;;;1.52;;
61505;SDS011;47366;51.916;4.574;2023-05-09T18:52:38;2.97;;;1.90;;
61505;SDS011;47366;51.916;4.574;2023-05-09T18:55:03;2.65;;;1.75;;
61505;SDS011;47366;51.916;4.574;2023-05-09T18:57:30;2.88;;;2.10;;
61505;SDS011;47366;51.916;4.574;2023-05-09T18:59:55;3.38;;;2.10;;
61505;SDS011;47366;51.916;4.574;2023-05-09T19:02:20;2.78;;;1.92;;
61505;SDS011;47366;51.916;4.574;2023-05-09T19:04:47;1.98;;;1.42;;
61505;SDS011;47366;51.916;4.574;2023-05-09T19:07:14;3.15;;;1.80;;
61505;SDS011;47366;51.916;4.574;2023-05-09T19:09:40;5.15;;;2.20;;
61505;SDS011;47366;51.916;4.574;2023-05-09T19:12:05;3.30;;;2.00;;
61505;SDS011;47366;51.916;4.574;2023-05-09T19:14:33;2.65;;;1.65;;